Danville, IL (61832)

3:42 AM CDT on July 28, 2016 (GMT -0500)
N Jackson | | Change Station

Elev 672 ft 40.17 °N, 87.63 °W | Updated 1 second ago

Overcast
Overcast
72.9 °F
Feels Like 72 °F
N
0.0
Wind Variable Wind from SSE
Gusts 0.0 mph

Today
High -- | Low -- °F
--% Chance of Precip.
Yesterday
High -- | Low -- °F
Precip. -- in
Pressure 29.88 in
Visibility 4.0 miles
Clouds Overcast 6000 ft
Heat Index 72 °F
Dew Point 68 °F
Humidity 84%
Rainfall 0.00 in
Snow Depth Not available.
5:45 AM 8:08 PM
Waning Crescent, 34% visible
METAR KDNV 280835Z AUTO 00000KT 4SM BR OVC060 20/20 A2988 RMK AO2 T02040201
Pressure 29.88 in
Visibility 4.0 miles
Clouds Overcast 6000 ft
Heat Index 72 °F
Dew Point 68 °F
Humidity 84%
Rainfall 0.00 in
Snow Depth Not available.
5:45 AM 8:08 PM
Waning Crescent, 34% visible
METAR KDNV 280835Z AUTO 00000KT 4SM BR OVC060 20/20 A2988 RMK AO2 T02040201

10-Day Weather Forecast

Almanac

Astronomy

Jul. 28, 2016 Rise Set
Actual Time
Civil Twilight
Nautical Twilight
Astronomical Twilight
Moon
Length of Visible Light
Length of Day
Tomorrow will be .
, % of the Moon is Illuminated

Today's Extremes

State Highs State Lows

Community

WunderPhotos

Upload Photos

1,928,070 photos uploaded!

WunderBlog® & News

Nearby

Air Quality

  Air Quality AQ Index Pollutant
Not available.

Snow Depth

Station Depth Elevation

Earthquake Activity

City Distance Mag. Time & Date
Minimum magnitude displayed is 2.5.

Coastal Water Temperatures

Place Temperature

Stations

Nearby Weather Stations

Station Location Temp. Windchill Dew Point Humidity Wind Precip. Elev Updated Type
                   

Watches & Warnings

There are currently no watches in effect.